Flight Track Log - Related Links

Times and Time Zones

All times are in EDT time to prevent confusion due to time zone crossing. See the SWA267 flight status page for this flight to view local times or setup timezone preferences in your user account.

Time Position Orientation Groundspeed Altitude Reporting Facility
EDT Latitude Longitude Course Direction KTS MPH feet Rate Location/Type
Tue 12:30:57 PM 36.9267 -76.1714 34° Northeast 177 204 1,600  Level Washington Center
Tue 12:32:03 PM 36.9850 -76.1717 360° North 251 289 3,700 1,134 Climbing Washington Center
Tue 12:33:04 PM 36.9867 -76.2628 271° West 276 318 4,000 639 Climbing Washington Center
Tue 12:34:05 PM 36.9672 -76.3536 255° West 278 320 5,000 1,796 Climbing Washington Center
Tue 12:35:21 PM 37.0042 -76.4581 294° West 279 321 8,100 2,471 Climbing Washington Center
Tue 12:36:21 PM 37.0431 -76.5364 302° West 284 327 10,600 1,750 Climbing Washington Center
Tue 12:37:21 PM 37.0903 -76.6333 301° West 293 337 11,600 1,550 Climbing Washington Center
Tue 12:38:21 PM 37.1394 -76.7331 302° West 319 367 13,700 2,100 Climbing Washington Center
Tue 12:39:21 PM 37.1928 -76.8381 303° West 345 397 15,800 1,150 Climbing Washington Center
Tue 12:40:21 PM 37.2356 -76.9328 300° West 350 403 16,000 100 Climbing Washington Center
Tue 12:41:21 PM 37.2925 -77.0458 302° West 355 409 16,000  Level Washington Center
Tue 12:42:21 PM 37.3500 -77.1175 315° West 317 365 16,000  Level Washington Center
Tue 12:43:22 PM 37.4586 -77.1222 358° North 315 362 16,000  Level Washington Center
Tue 12:44:21 PM 37.5544 -77.1242 359° North 351 404 16,000  Level Washington Center
Tue 12:45:21 PM 37.6650 -77.1264 359° North 376 433 16,000  Level Washington Center
Tue 12:46:22 PM 37.7714 -77.1286 359° North 382 440 16,000  Level Washington Center
Tue 12:47:21 PM 37.8678 -77.0886 18° North 370 426 16,000  Level Washington Center
Tue 12:48:21 PM 37.9661 -77.0511 17° North 370 426 16,000  Level Washington Center
Tue 12:49:21 PM 38.0667 -77.0239 12° North 365 420 16,000  Level Washington Center
Tue 12:50:21 PM 38.1622 -77.0547 346° North 352 405 16,000 -300 Level Washington Center
Tue 12:51:21 PM 38.2556 -77.0911 343° North 347 399 15,400 -600 Descending Washington Center
Tue 12:52:21 PM 38.3617 -77.1222 347° North 347 399 14,800 -850 Descending Washington Center
Tue 12:53:21 PM 38.4333 -77.0417 41° Northeast 304 350 13,700 -1,050 Descending Washington Center
Tue 12:54:21 PM 38.4969 -76.9525 48° Northeast 315 362 12,700 -1,000 Descending Washington Center
Tue 12:55:21 PM 38.5606 -76.8633 48° Northeast 320 368 11,700 -1,200 Descending Washington Center
Tue 12:56:21 PM 38.6178 -76.7819 48° Northeast 314 361 10,300 -1,100 Descending Washington Center
Tue 12:57:21 PM 38.6706 -76.7083 47° Northeast 302 348 9,500 -1,091 Descending Washington Center
Tue 12:58:22 PM 38.7233 -76.6347 47° Northeast 284 327 8,100 -1,286 Descending Washington Center
Tue 12:58:59 PM 38.7500 -76.5833 56° Northeast 282 325 7,400 -1,237 Descending Potomac TRACON
Tue 12:59:59 PM 38.8167 -76.5167 38° Northeast 274 315 6,100 -1,148 Descending Potomac TRACON
Tue 01:00:54 PM 38.8667 -76.5333 345° North 242 278 5,200 -1,043 Descending Potomac TRACON
Tue 01:01:54 PM 38.9333 -76.5667 339° North 229 264 4,100 -600 Descending Potomac TRACON
Tue 01:02:54 PM 39.0000 -76.5833 349° North 232 267 4,000 -496 Descending Potomac TRACON
Tue 01:03:55 PM 39.0667 -76.6000 349° North 209 241 3,100 -893 Descending Potomac TRACON
Tue 01:04:55 PM 39.1000 -76.6167 339° North 139 160 2,200 -1,053 Descending Potomac TRACON
Tue 01:05:49 PM 39.1333 -76.6333 339° North 142 163 1,100 -1,222 Descending Potomac TRACON
Tue 01:07:00 PM 39.1667 -76.6667 339° North  Level FlightAware Approximate
Tue 01:14:00 PM 39.1754 -76.6683 339° North  Level Estimated
Tue 01:15:00 PM 39.1754 -76.6683 339° North  Level Estimated
Tue 01:16:00 PM 39.1754 -76.6683 339° North  Level Estimated
Tue 01:17:00 PM 39.1754 -76.6683 339° North  Level Estimated

Login

Don't have an account? Register now (free) for customized features, flight alerts, and more!